createdAt,value
2018-08-17T00:00:29.888Z,101268.19
2018-08-17T00:02:58.380Z,101265.73
2018-08-17T00:05:26.861Z,101267.09
2018-08-17T00:07:55.367Z,101260.57
2018-08-17T00:10:23.880Z,101261.09
2018-08-17T00:12:52.344Z,101263.77
2018-08-17T00:15:20.846Z,101261.55
2018-08-17T00:17:49.333Z,101267.23
2018-08-17T00:20:17.875Z,101266.67
2018-08-17T00:22:46.335Z,101261.73
2018-08-17T00:25:14.803Z,101256.57
2018-08-17T00:27:43.300Z,101261.75
2018-08-17T00:30:11.764Z,101262.84
2018-08-17T00:32:40.300Z,101263.09
2018-08-17T00:35:08.759Z,101263.03
2018-08-17T00:37:37.239Z,101264.30
2018-08-17T00:40:05.973Z,101269.22
2018-08-17T00:42:34.900Z,101270.53
2018-08-17T00:45:03.454Z,101267.55
2018-08-17T00:47:31.934Z,101266.95
2018-08-17T00:50:00.416Z,101275.33
2018-08-17T00:52:28.924Z,101271.25
2018-08-17T00:54:57.414Z,101275.90
2018-08-17T00:57:25.906Z,101272.25
2018-08-17T00:59:54.435Z,101274.05
2018-08-17T01:02:22.904Z,101272.44
2018-08-17T01:04:51.382Z,101264.07
2018-08-17T01:07:19.879Z,101266.33
2018-08-17T01:09:48.380Z,101270.98
2018-08-17T01:12:16.874Z,101273.61
2018-08-17T01:14:45.440Z,101272.42
2018-08-17T01:17:13.955Z,101275.43
2018-08-17T01:19:42.411Z,101275.49
2018-08-17T01:22:10.949Z,101275.70
2018-08-17T01:24:39.363Z,101280.78
2018-08-17T01:27:07.833Z,101284.75
2018-08-17T01:29:36.315Z,101276.08
2018-08-17T01:32:04.767Z,101284.08
2018-08-17T01:34:33.284Z,101288.47
2018-08-17T01:37:01.772Z,101287.42
2018-08-17T01:39:30.244Z,101288.68
2018-08-17T01:41:58.710Z,101284.17
2018-08-17T01:44:27.188Z,101286.08
2018-08-17T01:46:55.645Z,101287.34
2018-08-17T01:49:24.092Z,101284.98
2018-08-17T01:51:52.714Z,101284.11
2018-08-17T01:54:21.185Z,101275.51
2018-08-17T01:56:49.667Z,101277.96
2018-08-17T01:59:18.160Z,101279.55
2018-08-17T02:01:46.632Z,101278.34
2018-08-17T02:04:15.113Z,101277.25
2018-08-17T02:06:43.601Z,101284.11
2018-08-17T02:09:12.996Z,101286.43
2018-08-17T02:11:42.016Z,101291.59
2018-08-17T02:14:10.504Z,101294.77
2018-08-17T02:16:39.489Z,101296.70
2018-08-17T02:19:07.959Z,101298.03
2018-08-17T02:21:36.484Z,101293.12
2018-08-17T02:24:04.964Z,101295.66
2018-08-17T02:26:33.411Z,101283.14
2018-08-17T02:29:01.876Z,101287.81
2018-08-17T02:31:30.352Z,101280.77
2018-08-17T02:33:58.833Z,101277.95
2018-08-17T02:36:27.337Z,101277.05
2018-08-17T02:38:55.784Z,101286.74
2018-08-17T02:41:24.245Z,101289.48
2018-08-17T02:43:52.774Z,101287.61
2018-08-17T02:46:21.257Z,101291.45
2018-08-17T02:48:49.755Z,101283.34
2018-08-17T02:51:18.254Z,101284.78
2018-08-17T02:53:46.726Z,101284.96
2018-08-17T02:56:15.216Z,101292.42
2018-08-17T02:58:43.763Z,101289.11
2018-08-17T03:01:12.308Z,101289.62
2018-08-17T03:03:40.811Z,101286.97
2018-08-17T03:06:09.295Z,101287.09
2018-08-17T03:08:37.777Z,101292.58
2018-08-17T03:11:06.370Z,101290.23
2018-08-17T03:13:34.888Z,101294.14
2018-08-17T03:16:03.436Z,101302.14
2018-08-17T03:18:32.004Z,101299.20
2018-08-17T03:21:00.496Z,101303.24
2018-08-17T03:23:28.994Z,101313.05
2018-08-17T03:25:57.462Z,101310.08
2018-08-17T03:28:25.968Z,101310.41
2018-08-17T03:30:54.520Z,101313.02
2018-08-17T03:33:23.000Z,101311.66
2018-08-17T03:35:51.555Z,101313.22
2018-08-17T03:38:20.088Z,101317.38
2018-08-17T03:40:48.589Z,101321.15
2018-08-17T03:43:17.132Z,101322.44
2018-08-17T03:45:45.723Z,101324.06
2018-08-17T03:48:14.221Z,101321.64
2018-08-17T03:50:42.721Z,101333.52
2018-08-17T03:53:11.284Z,101340.09
2018-08-17T03:55:39.755Z,101340.20
2018-08-17T03:58:08.537Z,101349.06
2018-08-17T04:00:37.101Z,101346.13
2018-08-17T04:03:05.812Z,101341.73
2018-08-17T04:05:34.336Z,101351.00
2018-08-17T04:08:02.839Z,101356.56
2018-08-17T04:10:31.380Z,101356.48
2018-08-17T04:12:59.902Z,101364.61
2018-08-17T04:15:28.467Z,101363.48
2018-08-17T04:17:56.968Z,101371.42
2018-08-17T04:20:25.471Z,101376.33
2018-08-17T04:22:54.305Z,101376.45
2018-08-17T04:25:22.781Z,101383.80
2018-08-17T04:27:51.539Z,101394.72
2018-08-17T04:30:20.067Z,101390.98
2018-08-17T04:32:48.544Z,101386.37
2018-08-17T04:35:17.086Z,101388.64
2018-08-17T04:37:45.625Z,101392.88
2018-08-17T04:40:14.124Z,101394.56
2018-08-17T04:42:42.755Z,101394.30
2018-08-17T04:45:11.274Z,101396.17
2018-08-17T04:47:39.760Z,101396.86
2018-08-17T04:50:09.276Z,101395.27
2018-08-17T04:52:38.260Z,101392.42
2018-08-17T04:55:07.277Z,101393.58
2018-08-17T04:57:35.937Z,101396.30
2018-08-17T05:00:06.448Z,101405.59
2018-08-17T05:02:35.168Z,101409.50
2018-08-17T05:05:03.760Z,101408.48
2018-08-17T05:07:32.311Z,101407.44
2018-08-17T05:10:00.820Z,101403.71
2018-08-17T05:12:29.324Z,101408.36
2018-08-17T05:14:57.919Z,101415.75
2018-08-17T05:17:26.472Z,101413.08
2018-08-17T05:19:55.004Z,101414.78
2018-08-17T05:22:23.590Z,101410.50
2018-08-17T05:24:52.173Z,101409.16
2018-08-17T05:27:20.823Z,101410.85
2018-08-17T05:29:49.328Z,101413.92
2018-08-17T05:32:17.801Z,101408.03
2018-08-17T05:34:46.367Z,101406.78
2018-08-17T05:37:14.946Z,101411.59
2018-08-17T05:39:43.478Z,101422.70
2018-08-17T05:42:12.052Z,101422.73
2018-08-17T05:44:40.731Z,101423.87
2018-08-17T05:47:09.232Z,101423.65
2018-08-17T05:49:37.712Z,101422.10
2018-08-17T05:52:06.544Z,101418.09
2018-08-17T05:54:35.166Z,101421.35
2018-08-17T05:57:03.732Z,101424.53
2018-08-17T05:59:32.371Z,101421.08
2018-08-17T06:02:00.900Z,101424.67
2018-08-17T06:04:29.513Z,101426.36
2018-08-17T06:06:58.125Z,101420.94
2018-08-17T06:09:26.624Z,101424.49
2018-08-17T06:11:55.083Z,101436.00
2018-08-17T06:14:23.544Z,101434.41
2018-08-17T06:16:52.055Z,101439.35
2018-08-17T06:19:20.598Z,101430.69
2018-08-17T06:21:49.124Z,101420.64
2018-08-17T06:24:17.746Z,101419.06
2018-08-17T06:26:46.283Z,101424.25
2018-08-17T06:29:14.743Z,101429.46
2018-08-17T06:31:43.360Z,101429.20
2018-08-17T06:34:12.034Z,101426.48
2018-08-17T06:36:40.524Z,101437.67
2018-08-17T06:39:10.861Z,101416.19
2018-08-17T06:41:39.401Z,101432.81
2018-08-17T06:44:08.007Z,101432.00
2018-08-17T06:46:36.655Z,101433.37
2018-08-17T06:49:05.171Z,101438.81
2018-08-17T06:51:33.624Z,101433.37
2018-08-17T06:54:02.112Z,101440.47
2018-08-17T06:56:30.569Z,101447.81
2018-08-17T06:58:59.100Z,101456.55
2018-08-17T07:01:27.588Z,101453.27
2018-08-17T07:03:56.202Z,101451.66
2018-08-17T07:06:24.734Z,101445.64
2018-08-17T07:08:53.395Z,101445.67
2018-08-17T07:11:22.085Z,101455.22
2018-08-17T07:13:50.595Z,101455.22
2018-08-17T07:16:19.392Z,101442.08
2018-08-17T07:18:47.878Z,101442.64
2018-08-17T07:21:16.452Z,101458.45
2018-08-17T07:23:44.974Z,101467.20
2018-08-17T07:26:13.492Z,101463.87
2018-08-17T07:28:41.976Z,101459.49
2018-08-17T07:31:10.493Z,101463.28
2018-08-17T07:33:39.000Z,101460.81
2018-08-17T07:36:07.503Z,101456.61
2018-08-17T07:38:36.037Z,101442.29
2018-08-17T07:41:04.555Z,101448.24
2018-08-17T07:43:33.073Z,101454.53
2018-08-17T07:46:01.547Z,101455.67
2018-08-17T07:48:30.040Z,101457.55
2018-08-17T07:50:58.648Z,101465.42
2018-08-17T07:53:27.113Z,101457.86
2018-08-17T07:55:55.589Z,101455.70
2018-08-17T07:58:24.171Z,101454.02
2018-08-17T08:00:52.794Z,101459.48
2018-08-17T08:03:21.289Z,101452.78
2018-08-17T08:05:49.808Z,101453.83
2018-08-17T08:08:18.300Z,101446.17
2018-08-17T08:10:46.779Z,101450.59
2018-08-17T08:13:15.312Z,101462.35
2018-08-17T08:15:43.804Z,101465.72
2018-08-17T08:18:12.295Z,101473.48
2018-08-17T08:20:43.008Z,101481.00
2018-08-17T08:23:22.768Z,101483.52
2018-08-17T08:25:51.336Z,101489.59
2018-08-17T08:28:20.056Z,101489.06
2018-08-17T08:30:48.856Z,101496.45
2018-08-17T08:33:17.714Z,101494.80
2018-08-17T08:35:46.600Z,101492.94
2018-08-17T08:38:15.065Z,101501.98
2018-08-17T08:40:43.608Z,101518.89
2018-08-17T08:43:12.107Z,101518.63
2018-08-17T08:45:40.822Z,101518.56
2018-08-17T08:48:09.743Z,101524.59
2018-08-17T08:50:38.736Z,101536.38
2018-08-17T08:53:07.672Z,101545.67
2018-08-17T08:55:36.201Z,101564.82
2018-08-17T08:58:05.011Z,101578.56
2018-08-17T09:00:33.574Z,101574.19
2018-08-17T09:03:02.230Z,101569.56
2018-08-17T09:05:30.709Z,101571.18
2018-08-17T09:07:59.204Z,101571.20
2018-08-17T09:10:27.700Z,101576.20
2018-08-17T09:12:56.272Z,101579.25
2018-08-17T09:15:24.787Z,101572.73
2018-08-17T09:17:53.321Z,101585.04
2018-08-17T09:20:21.922Z,101583.94
2018-08-17T09:22:50.491Z,101580.38
2018-08-17T09:25:19.208Z,101582.56
2018-08-17T09:27:47.780Z,101586.11
2018-08-17T09:30:16.357Z,101597.03
2018-08-17T09:32:44.962Z,101594.02
2018-08-17T09:35:14.134Z,101588.31
2018-08-17T09:37:42.603Z,101595.39
2018-08-17T09:40:11.736Z,101599.77
2018-08-17T09:42:40.265Z,101592.41
2018-08-17T09:45:10.950Z,101578.20
2018-08-17T09:47:39.467Z,101580.92
2018-08-17T09:50:11.276Z,101575.48
2018-08-17T09:52:40.096Z,101582.30
2018-08-17T09:55:08.644Z,101579.05
2018-08-17T09:57:37.172Z,101574.92
2018-08-17T10:00:07.068Z,101574.95
2018-08-17T10:02:40.862Z,101572.48
2018-08-17T10:05:14.657Z,101570.02
2018-08-17T10:07:48.399Z,101587.47
2018-08-17T10:10:25.688Z,101575.75
2018-08-17T10:12:54.264Z,101572.73
2018-08-17T10:15:23.814Z,101573.84
2018-08-17T10:17:52.337Z,101569.75
2018-08-17T10:20:21.907Z,101581.44
2018-08-17T10:22:50.371Z,101589.56
2018-08-17T10:25:23.138Z,101590.35
2018-08-17T10:27:53.716Z,101593.33
2018-08-17T10:30:23.160Z,101586.52
2018-08-17T10:32:53.560Z,101590.34
2018-08-17T10:35:27.268Z,101576.44
2018-08-17T10:37:58.835Z,101576.76
2018-08-17T10:40:27.783Z,101576.22
2018-08-17T10:42:56.550Z,101572.41
2018-08-17T10:45:26.383Z,101580.07
2018-08-17T10:47:55.435Z,101572.13
2018-08-17T10:50:26.020Z,101579.54
2018-08-17T10:52:55.828Z,101577.37
2018-08-17T10:55:35.800Z,101573.02
2018-08-17T10:58:04.840Z,101579.03
2018-08-17T11:00:33.339Z,101577.67
2018-08-17T11:03:01.817Z,101582.86
2018-08-17T11:05:30.717Z,101580.66
2018-08-17T11:07:59.253Z,101582.30
2018-08-17T11:10:27.736Z,101583.38
2018-08-17T11:12:56.559Z,101591.84
2018-08-17T11:15:25.075Z,101594.59
2018-08-17T11:17:53.555Z,101596.73
2018-08-17T11:20:22.175Z,101594.53
2018-08-17T11:22:51.098Z,101597.55
2018-08-17T11:25:19.683Z,101600.56
2018-08-17T11:27:49.628Z,101588.58
2018-08-17T11:30:18.264Z,101592.67
2018-08-17T11:32:46.760Z,101592.13
2018-08-17T11:35:15.354Z,101589.66
2018-08-17T11:37:43.936Z,101590.17
2018-08-17T11:40:13.276Z,101590.98
2018-08-17T11:42:44.302Z,101583.03
2018-08-17T11:45:15.292Z,101588.24
2018-08-17T11:47:44.404Z,101593.36
2018-08-17T11:50:14.283Z,101598.27
2018-08-17T11:52:59.094Z,101587.61
2018-08-17T11:55:29.408Z,101591.22
2018-08-17T11:57:58.030Z,101592.63
2018-08-17T12:00:26.886Z,101590.72
2018-08-17T12:02:55.376Z,101594.81
2018-08-17T12:05:23.857Z,101590.64
2018-08-17T12:07:52.355Z,101589.11
2018-08-17T12:10:20.937Z,101592.55
2018-08-17T12:12:49.445Z,101591.40
2018-08-17T12:15:18.099Z,101587.91
2018-08-17T12:17:46.620Z,101585.47
2018-08-17T12:20:15.088Z,101590.39
2018-08-17T12:22:43.644Z,101591.59
2018-08-17T12:25:12.173Z,101594.02
2018-08-17T12:27:46.628Z,101602.80
2018-08-17T12:30:15.185Z,101598.88
2018-08-17T12:32:43.687Z,101610.53
2018-08-17T12:35:12.213Z,101610.34
2018-08-17T12:37:40.728Z,101608.23
2018-08-17T12:40:09.350Z,101608.33
2018-08-17T12:42:38.746Z,101605.69
2018-08-17T12:45:12.404Z,101603.81
2018-08-17T12:47:40.931Z,101603.45
2018-08-17T12:50:09.731Z,101607.41
2018-08-17T12:52:38.237Z,101600.94
2018-08-17T12:55:06.792Z,101598.23
2018-08-17T12:57:41.137Z,101594.08
2018-08-17T13:00:10.040Z,101602.53
2018-08-17T13:02:38.540Z,101604.30
2018-08-17T13:05:07.108Z,101613.78
2018-08-17T13:07:35.619Z,101610.48
2018-08-17T13:10:04.255Z,101617.80
2018-08-17T13:12:32.802Z,101623.41
2018-08-17T13:15:01.387Z,101618.33
2018-08-17T13:17:38.032Z,101614.13
2018-08-17T13:20:07.017Z,101614.00
2018-08-17T13:22:35.735Z,101608.64
2018-08-17T13:25:04.868Z,101606.17
2018-08-17T13:27:33.483Z,101603.25
2018-08-17T13:30:01.956Z,101603.55
2018-08-17T13:32:30.512Z,101599.26
2018-08-17T13:34:59.067Z,101605.95
2018-08-17T13:37:27.596Z,101601.12
2018-08-17T13:39:56.164Z,101602.98
2018-08-17T13:42:24.699Z,101610.17
2018-08-17T13:44:53.316Z,101607.06
2018-08-17T13:47:21.797Z,101610.48
2018-08-17T13:49:50.303Z,101612.25
2018-08-17T13:52:18.858Z,101609.78
2018-08-17T13:54:47.356Z,101609.66
2018-08-17T13:57:15.872Z,101607.04
2018-08-17T13:59:44.490Z,101609.48
2018-08-17T14:02:13.078Z,101616.14
2018-08-17T14:04:41.639Z,101614.99
2018-08-17T14:07:10.157Z,101614.72
2018-08-17T14:09:38.836Z,101613.86
2018-08-17T14:12:08.344Z,101616.20
2018-08-17T14:14:36.854Z,101611.78
2018-08-17T14:17:06.027Z,101610.72
2018-08-17T14:19:34.608Z,101615.57
2018-08-17T14:22:03.156Z,101618.56
2018-08-17T14:24:31.632Z,101620.06
2018-08-17T14:27:00.108Z,101622.80
2018-08-17T14:29:28.608Z,101630.81
2018-08-17T14:31:57.160Z,101621.11
2018-08-17T14:34:25.808Z,101629.16
2018-08-17T14:36:54.306Z,101620.91
2018-08-17T14:39:22.863Z,101633.23
2018-08-17T14:42:01.992Z,101642.88
2018-08-17T14:44:30.863Z,101636.40
2018-08-17T14:46:59.410Z,101643.30
2018-08-17T14:49:27.974Z,101641.09
2018-08-17T14:51:56.558Z,101637.83
2018-08-17T14:54:25.059Z,101636.72
2018-08-17T14:56:53.645Z,101631.75
2018-08-17T14:59:22.808Z,101636.63
2018-08-17T15:01:51.308Z,101637.23
2018-08-17T15:04:19.820Z,101633.44
2018-08-17T15:06:48.348Z,101636.42
2018-08-17T15:09:16.951Z,101628.98
2018-08-17T15:11:45.451Z,101625.99
2018-08-17T15:14:14.686Z,101638.09
2018-08-17T15:16:43.776Z,101625.17
2018-08-17T15:19:12.441Z,101630.52
2018-08-17T15:21:41.432Z,101627.64
2018-08-17T15:24:10.561Z,101639.14
2018-08-17T15:26:39.119Z,101634.05
2018-08-17T15:29:07.634Z,101637.48
2018-08-17T15:31:36.877Z,101638.91
2018-08-17T15:34:06.772Z,101643.60
2018-08-17T15:36:35.297Z,101641.45
2018-08-17T15:41:47.416Z,101636.77
2018-08-17T15:44:23.070Z,101637.59
2018-08-17T15:46:52.147Z,101651.11
2018-08-17T15:49:33.452Z,101650.20
2018-08-17T15:52:03.116Z,101644.19
2018-08-17T15:54:32.397Z,101644.74
2018-08-17T15:57:03.722Z,101635.64
2018-08-17T15:59:43.516Z,101640.30
2018-08-17T16:02:12.025Z,101635.08
2018-08-17T16:04:40.591Z,101635.62
2018-08-17T16:07:09.282Z,101636.36
2018-08-17T16:09:37.744Z,101639.01
2018-08-17T16:12:06.823Z,101630.92
2018-08-17T16:14:35.725Z,101625.90
2018-08-17T16:17:04.272Z,101626.89
2018-08-17T16:19:32.794Z,101627.32
2018-08-17T16:22:01.711Z,101620.85
2018-08-17T16:24:30.188Z,101620.81
2018-08-17T16:26:59.309Z,101619.97
2018-08-17T16:29:28.226Z,101623.81
2018-08-17T16:31:57.536Z,101615.86
2018-08-17T16:34:27.477Z,101623.02
2018-08-17T16:36:56.576Z,101618.66
2018-08-17T16:39:27.007Z,101622.24
2018-08-17T16:41:59.838Z,101628.81
2018-08-17T16:44:28.352Z,101630.47
2018-08-17T16:46:56.857Z,101627.02
2018-08-17T16:49:25.409Z,101628.97
2018-08-17T16:51:54.102Z,101635.62
2018-08-17T16:54:22.611Z,101626.92
2018-08-17T16:56:51.147Z,101626.64
2018-08-17T16:59:19.725Z,101630.70
2018-08-17T17:01:48.252Z,101621.34
2018-08-17T17:04:16.800Z,101626.27
2018-08-17T17:06:45.336Z,101628.22
2018-08-17T17:09:13.852Z,101625.89
2018-08-17T17:11:42.511Z,101628.84
2018-08-17T17:14:11.561Z,101627.22
2018-08-17T17:16:45.501Z,101628.62
2018-08-17T17:19:17.659Z,101629.17
2018-08-17T17:21:47.296Z,101634.67
2018-08-17T17:24:18.324Z,101632.70
2018-08-17T17:26:47.249Z,101632.17
2018-08-17T17:29:17.516Z,101635.52
2018-08-17T17:31:49.352Z,101637.78
2018-08-17T17:34:17.964Z,101640.57
2018-08-17T17:36:46.475Z,101646.91
2018-08-17T17:39:16.899Z,101642.31
2018-08-17T17:41:45.860Z,101650.56
2018-08-17T17:44:14.889Z,101648.13
2018-08-17T17:46:43.372Z,101649.27
2018-08-17T17:49:13.204Z,101645.70
2018-08-17T17:51:42.204Z,101649.28
2018-08-17T17:54:11.065Z,101645.75
2018-08-17T17:56:39.517Z,101642.20
2018-08-17T17:59:13.475Z,101649.61
2018-08-17T18:01:41.946Z,101650.75
2018-08-17T18:04:10.460Z,101646.44
2018-08-17T18:06:38.971Z,101651.91
2018-08-17T18:09:07.578Z,101649.19
2018-08-17T18:11:36.164Z,101654.94
2018-08-17T18:14:04.717Z,101661.46
2018-08-17T18:16:33.192Z,101659.53
2018-08-17T18:19:01.650Z,101662.53
2018-08-17T18:21:32.855Z,101666.61
2018-08-17T18:24:06.756Z,101668.22
2018-08-17T18:26:35.586Z,101671.77
2018-08-17T18:29:04.129Z,101665.72
2018-08-17T18:31:32.636Z,101674.98
2018-08-17T18:34:01.205Z,101670.53
2018-08-17T18:36:29.744Z,101676.77
2018-08-17T18:38:58.235Z,101679.21
2018-08-17T18:41:26.730Z,101680.61
2018-08-17T18:43:55.214Z,101683.25
2018-08-17T18:46:23.707Z,101687.05
2018-08-17T18:48:52.289Z,101691.03
2018-08-17T18:51:20.864Z,101692.06
2018-08-17T18:53:49.492Z,101695.84
2018-08-17T18:56:17.956Z,101689.27
2018-08-17T18:58:46.754Z,101702.91
2018-08-17T19:01:15.297Z,101704.53
2018-08-17T19:03:43.792Z,101708.88
2018-08-17T19:06:12.283Z,101715.92
2018-08-17T19:08:41.087Z,101715.05
2018-08-17T19:11:09.648Z,101718.50
2018-08-17T19:13:38.112Z,101719.17
2018-08-17T19:16:06.722Z,101717.95
2018-08-17T19:18:35.163Z,101728.94
2018-08-17T19:21:08.548Z,101731.58
2018-08-17T19:23:37.507Z,101732.24
2018-08-17T19:26:06.719Z,101740.28
2018-08-17T19:28:35.359Z,101745.04
2018-08-17T19:31:03.887Z,101744.33
2018-08-17T19:33:32.408Z,101744.09
2018-08-17T19:36:01.089Z,101744.89
2018-08-17T19:38:29.651Z,101748.09
2018-08-17T19:40:58.183Z,101742.80
2018-08-17T19:43:26.730Z,101739.09
2018-08-17T19:45:55.195Z,101748.66
2018-08-17T19:48:23.816Z,101750.18
2018-08-17T19:50:52.369Z,101753.41
2018-08-17T19:53:20.843Z,101760.75
2018-08-17T19:55:49.292Z,101762.61
2018-08-17T19:58:17.821Z,101763.72
2018-08-17T20:00:46.223Z,101768.81
2018-08-17T20:03:14.739Z,101765.47
2018-08-17T20:05:43.245Z,101769.88
2018-08-17T20:08:11.749Z,101773.34
2018-08-17T20:10:42.416Z,101773.38
2018-08-17T20:13:11.018Z,101776.52
2018-08-17T20:15:39.516Z,101777.58
2018-08-17T20:18:08.036Z,101777.83
2018-08-17T20:20:36.616Z,101783.75
2018-08-17T20:23:05.131Z,101790.64
2018-08-17T20:25:33.690Z,101791.92
2018-08-17T20:28:02.168Z,101795.35
2018-08-17T20:30:30.723Z,101800.16
2018-08-17T20:32:59.301Z,101800.48
2018-08-17T20:35:27.925Z,101804.64
2018-08-17T20:37:56.501Z,101806.09
2018-08-17T20:40:25.024Z,101805.47
2018-08-17T20:42:53.715Z,101802.92
2018-08-17T20:45:25.772Z,101811.78
2018-08-17T20:47:54.472Z,101815.98
2018-08-17T20:50:22.950Z,101813.78
2018-08-17T20:52:58.517Z,101817.23
2018-08-17T20:55:27.387Z,101824.06
2018-08-17T20:57:56.829Z,101822.78
2018-08-17T21:00:26.887Z,101826.88
2018-08-17T21:02:55.623Z,101825.26
2018-08-17T21:05:24.181Z,101827.86
2018-08-17T21:07:52.796Z,101831.80
2018-08-17T21:10:21.340Z,101834.44
2018-08-17T21:12:50.137Z,101827.48
2018-08-17T21:15:19.096Z,101830.50
2018-08-17T21:17:48.274Z,101830.20
2018-08-17T21:20:20.582Z,101828.66
2018-08-17T21:22:49.161Z,101826.44
2018-08-17T21:25:18.016Z,101826.48
2018-08-17T21:27:46.853Z,101831.55
2018-08-17T21:30:15.457Z,101830.01
2018-08-17T21:32:43.940Z,101828.88
2018-08-17T21:35:12.568Z,101830.84
2018-08-17T21:37:41.265Z,101837.61
2018-08-17T21:40:16.328Z,101836.67
2018-08-17T21:42:44.972Z,101837.03
2018-08-17T21:45:13.456Z,101834.39
2018-08-17T21:47:42.015Z,101844.88
2018-08-17T21:50:13.822Z,101843.27
2018-08-17T21:52:43.340Z,101845.10
2018-08-17T21:55:11.811Z,101844.97
2018-08-17T21:57:40.363Z,101834.02
2018-08-17T22:00:13.992Z,101841.77
2018-08-17T22:02:42.499Z,101839.43
2018-08-17T22:05:15.399Z,101840.92
2018-08-17T22:25:00.796Z,101844.67
2018-08-17T22:27:29.829Z,101849.77
2018-08-17T22:29:59.261Z,101854.44
2018-08-17T22:32:27.837Z,101847.89
2018-08-17T22:34:56.408Z,101853.83
2018-08-17T22:37:24.913Z,101850.56
2018-08-17T22:39:53.468Z,101854.08
2018-08-17T22:42:22.998Z,101852.06
2018-08-17T22:44:52.019Z,101854.46
2018-08-17T22:47:28.402Z,101855.91
2018-08-17T22:49:58.089Z,101850.73
2018-08-17T22:52:26.745Z,101850.27
2018-08-17T22:55:01.617Z,101854.45
2018-08-17T22:57:30.847Z,101857.91
2018-08-17T23:00:21.143Z,101854.91
2018-08-17T23:02:51.036Z,101856.41
2018-08-17T23:05:22.000Z,101857.23
2018-08-17T23:07:50.559Z,101858.66
2018-08-17T23:10:20.409Z,101862.39
2018-08-17T23:12:50.130Z,101865.41
2018-08-17T23:15:18.748Z,101869.34
2018-08-17T23:17:51.491Z,101868.27
2018-08-17T23:20:25.238Z,101862.55
2018-08-17T23:22:55.722Z,101872.16
2018-08-17T23:25:24.357Z,101867.16
2018-08-17T23:27:53.278Z,101873.59
2018-08-17T23:30:21.853Z,101875.24
2018-08-17T23:32:50.431Z,101872.83
2018-08-17T23:35:18.885Z,101876.88
2018-08-17T23:37:47.429Z,101871.05
2018-08-17T23:40:15.921Z,101884.63
2018-08-17T23:42:44.821Z,101888.56
2018-08-17T23:45:14.991Z,101883.34
2018-08-17T23:47:43.633Z,101879.27
2018-08-17T23:50:13.243Z,101889.39
2018-08-17T23:52:41.975Z,101886.57
2018-08-17T23:55:13.186Z,101881.23
2018-08-17T23:57:41.930Z,101884.06
